Faust — SLKQ — position and weather

sailwx.info

Track history (hours):
 
Tides and Currents Weather Stations Pressure Air Temp Water Temp Dewpoint Dewpoint Depression Visibility Wind Speed Wind Dir Waves Ship Positions

Faust

Last reported at 2017-Jun-23 03:18 UTC. Time now 2017-Jun-23 03:30 UTC.
Position N 49°24' W 003°58'.

Length 227.8 m; beam 32.3 m; draft 9.5 m.

Type: Cargo ship. MMSI: 266260000.

Date/timePositionNaut miles runAvg speedWind from/ knotsBaromVisibWave heightAir tempDewpointWater temp
2017-Jun-23 03:18N 49°24' W 003°58'1117.4
2017-Jun-23 02:42N 49°19' W 004°13'417.2
2017-Jun-23 02:28N 49°17' W 004°18'817.0
2017-Jun-23 02:00N 49°13' W 004°28'917.0
2017-Jun-23 01:28N 49°08' W 004°39'816.8
2017-Jun-23 01:00N 49°04' W 004°50'816.7
2017-Jun-23 00:30N 49°00' W 005°01'816.3
2017-Jun-23 00:00N 48°56' W 005°12'816.0
2017-Jun-22 23:30N 48°52' W 005°22'714.8
2017-Jun-22 23:00N 48°48' W 005°32'713.1
2017-Jun-22 22:30N 48°43' W 005°38'612.4
2017-Jun-22 21:59N 48°37' W 005°42'611.7
2017-Jun-22 21:30N 48°32' W 005°46'712.8
2017-Jun-22 20:57N 48°26' W 005°51'614.2
2017-Jun-22 20:30N 48°20' W 005°56'714.1
2017-Jun-22 19:59N 48°14' W 006°01'814.1
2017-Jun-22 19:26N 48°07' W 006°07'614.2
2017-Jun-22 19:00N 48°02' W 006°11'714.4
2017-Jun-22 18:30N 47°55' W 006°16'1014.3
2017-Jun-22 17:48N 47°46' W 006°22'1214.2
2017-Jun-22 16:59N 47°36' W 006°30'3015.3
2017-Jun-22 15:00N 47°09' W 006°51'47415.4
2017-Jun-21 08:14N 39°34' W 009°51'315.3
2017-Jun-21 08:00N 39°30' W 009°51'815.5
2017-Jun-21 07:30N 39°23' W 009°51'816.0
2017-Jun-21 07:00N 39°15' W 009°51'815.6
2017-Jun-21 06:30N 39°07' W 009°51'815.8
2017-Jun-21 06:00N 38°59' W 009°51'815.5
2017-Jun-21 05:30N 38°51' W 009°51'815.7
2017-Jun-21 05:00N 38°43' W 009°51'815.2
2017-Jun-21 04:30N 38°36' W 009°49'815.1
2017-Jun-21 04:00N 38°28' W 009°47'815.2
2017-Jun-21 03:30N 38°21' W 009°44'815.3
2017-Jun-21 03:00N 38°14' W 009°42'715.1
2017-Jun-21 02:30N 38°06' W 009°40'815.2
2017-Jun-21 02:01N 37°59' W 009°38'815.0
2017-Jun-21 01:30N 37°51' W 009°36'714.7
2017-Jun-21 01:00N 37°44' W 009°34'815.2
2017-Jun-21 00:30N 37°37' W 009°32'815.7
2017-Jun-20 23:58N 37°29' W 009°29'815.5
2017-Jun-20 23:28N 37°21' W 009°27'715.6
2017-Jun-20 23:00N 37°14' W 009°25'815.6
2017-Jun-20 22:28N 37°06' W 009°23'815.6
2017-Jun-20 21:57N 36°58' W 009°21'715.0
2017-Jun-20 21:30N 36°52' W 009°17'815.4
2017-Jun-20 20:57N 36°46' W 009°09'714.9
2017-Jun-20 20:29N 36°43' W 009°02'715.1
2017-Jun-20 20:00N 36°40' W 008°53'815.2
2017-Jun-20 19:28N 36°38' W 008°43'715.5
2017-Jun-20 19:00N 36°36' W 008°35'815.5
2017-Jun-20 18:30N 36°33' W 008°26'815.6
2017-Jun-20 17:59N 36°31' W 008°16'815.6
2017-Jun-20 17:27N 36°28' W 008°06'1415.1
2017-Jun-20 16:33N 36°24' W 007°50'11015.9
2017-Jun-20 09:37N 35°58' W 005°37'216.0
2017-Jun-20 09:30N 35°58' W 005°35'815.4
2017-Jun-20 09:00N 36°00' W 005°26'714.9
2017-Jun-20 08:30N 36°04' W 005°18'815.8
2017-Jun-20 08:00N 36°09' W 005°10'16115.3
2017-Jun-19 21:29N 36°39' W 001°53'5016.3
2017-Jun-19 18:23N 37°12' W 001°05'615.8
2017-Jun-19 17:59N 37°16' W 000°60'815.9
2017-Jun-19 17:30N 37°21' W 000°52'816.1
2017-Jun-19 17:00N 37°27' W 000°44'815.9
2017-Jun-19 16:30N 37°32' W 000°37'815.4
2017-Jun-19 16:00N 37°38' W 000°30'815.4
2017-Jun-19 15:30N 37°44' W 000°25'815.7
2017-Jun-19 15:00N 37°51' W 000°20'815.9
2017-Jun-19 14:30N 37°57' W 000°14'1616.0
2017-Jun-19 13:29N 38°11' W 000°03'815.8
2017-Jun-19 13:00N 38°18' E 000°02'1215.3
2017-Jun-19 12:14N 38°27' E 000°11'515.2
2017-Jun-19 11:54N 38°32' E 000°14'3515.0
2017-Jun-19 09:34N 39°02' E 000°36'115.8
2017-Jun-19 09:30N 39°03' E 000°37'2415.7
2017-Jun-19 07:57N 39°24' E 000°52'1815.4
2017-Jun-19 06:48N 39°40' E 001°03'415.2
2017-Jun-19 06:30N 39°44' E 001°05'1015.1
2017-Jun-19 05:49N 39°53' E 001°12'515.0
2017-Jun-19 05:30N 39°57' E 001°15'715.0
2017-Jun-19 05:00N 40°04' E 001°20'815.2
2017-Jun-19 04:30N 40°10' E 001°25'815.5
2017-Jun-19 04:00N 40°17' E 001°29'815.8
2017-Jun-19 03:30N 40°24' E 001°34'815.9
2017-Jun-19 03:00N 40°31' E 001°39'815.8
2017-Jun-19 02:30N 40°38' E 001°44'815.9
2017-Jun-19 02:00N 40°45' E 001°49'816.0
2017-Jun-19 01:30N 40°52' E 001°55'815.9
2017-Jun-19 01:00N 40°59' E 001°59'816.0
2017-Jun-19 00:30N 41°06' E 002°04'816.0
2017-Jun-19 00:00N 41°13' E 002°09'612.6
2017-Jun-18 23:30N 41°20' E 002°10'1 0.6
2017-Jun-18 21:40N 41°20' E 002°09'0 0.0
2017-Jun-18 21:28N 41°20' E 002°09'0 0.0
2017-Jun-18 20:28N 41°20' E 002°09'0 0.0
2017-Jun-18 19:58N 41°20' E 002°09'0 0.0
2017-Jun-18 19:28N 41°20' E 002°09'0 0.0
2017-Jun-18 18:58N 41°20' E 002°09'0 0.0
2017-Jun-18 17:40N 41°20' E 002°09'0 0.0
2017-Jun-18 17:10N 41°20' E 002°09'0 0.0
2017-Jun-18 15:22N 41°20' E 002°09'0 0.1
2017-Jun-18 14:34N 41°20' E 002°09'2 4.0
2017-Jun-18 14:00N 41°18' E 002°11'4 8.7
2017-Jun-18 13:30N 41°17' E 002°16'914.4
2017-Jun-18 12:51N 41°20' E 002°28'514.2
2017-Jun-18 12:30N 41°22' E 002°34'1014.1
2017-Jun-18 11:49N 41°25' E 002°46'414.0
2017-Jun-18 11:30N 41°27' E 002°51'714.2
2017-Jun-18 11:00N 41°29' E 003°01'814.6
2017-Jun-18 10:27N 41°31' E 003°11'715.2
2017-Jun-18 10:00N 41°34' E 003°19'815.2
2017-Jun-18 09:30N 41°36' E 003°29'815.1
2017-Jun-18 09:00N 41°39' E 003°38'815.2
2017-Jun-18 08:30N 41°41' E 003°48'1115.1
2017-Jun-18 07:47N 41°45' E 004°02'1615.0
2017-Jun-18 06:44N 41°50' E 004°22'3015.2
2017-Jun-18 04:45N 42°01' E 004°60'3115.3
2017-Jun-18 02:45N 42°11' E 005°39'7915.0
2017-Jun-17 21:26N 42°37' E 007°20'714.9
2017-Jun-17 21:00N 42°40' E 007°28'715.1
2017-Jun-17 20:30N 42°42' E 007°38'815.1
2017-Jun-17 20:00N 42°45' E 007°47'815.3
2017-Jun-17 19:30N 42°48' E 007°57'815.6
2017-Jun-17 19:00N 42°50' E 008°07'815.4
2017-Jun-17 18:30N 42°53' E 008°17'815.2
2017-Jun-17 18:00N 42°55' E 008°27'815.1
2017-Jun-17 17:30N 42°58' E 008°37'815.2
2017-Jun-17 17:00N 43°01' E 008°46'714.9
2017-Jun-17 16:30N 43°03' E 008°56'715.0
2017-Jun-17 16:00N 43°05' E 009°06'815.3
2017-Jun-17 15:30N 43°08' E 009°15'815.5
2017-Jun-17 15:00N 43°11' E 009°25'815.5
2017-Jun-17 14:30N 43°15' E 009°35'1413.8
2017-Jun-17 13:30N 43°18' E 009°53'815.1
2017-Jun-17 13:00N 43°22' E 010°02'815.6
2017-Jun-17 12:30N 43°28' E 010°09'713.4
2017-Jun-17 12:00N 43°32' E 010°16'3 5.5
2017-Jun-17 11:30N 43°34' E 010°18'0 0.5
2017-Jun-17 10:58N 43°35' E 010°18'0 0.0
2017-Jun-17 10:28N 43°35' E 010°18'0 0.0
2017-Jun-17 10:00N 43°35' E 010°18'0 0.0
2017-Jun-17 09:30N 43°35' E 010°18'0 0.0
2017-Jun-17 09:00N 43°35' E 010°18'0 0.0
2017-Jun-17 08:30N 43°35' E 010°18'0 0.0
2017-Jun-17 08:00N 43°35' E 010°18'0 0.0
2017-Jun-17 07:30N 43°35' E 010°18'0 0.0
2017-Jun-17 07:00N 43°35' E 010°18'0 0.0
2017-Jun-17 06:30N 43°35' E 010°18'0 0.0
2017-Jun-17 06:00N 43°35' E 010°18'0 0.0
2017-Jun-17 05:30N 43°35' E 010°18'0 0.0
2017-Jun-17 05:00N 43°35' E 010°18'0 0.0
2017-Jun-17 04:30N 43°35' E 010°18'0 0.0
2017-Jun-17 04:00N 43°35' E 010°18'0 0.0
2017-Jun-17 03:28N 43°35' E 010°18'0 0.0
2017-Jun-17 03:00N 43°35' E 010°18'0 0.0
2017-Jun-17 02:30N 43°35' E 010°18'0 0.0
2017-Jun-17 02:00N 43°35' E 010°18'0 0.0
2017-Jun-17 01:30N 43°35' E 010°18'0 0.0
2017-Jun-17 01:00N 43°35' E 010°18'0 0.0
2017-Jun-17 00:30N 43°35' E 010°18'0 0.0
2017-Jun-17 00:00N 43°35' E 010°18'0 0.0
2017-Jun-16 23:30N 43°35' E 010°18'0 0.0
2017-Jun-16 23:00N 43°35' E 010°18'0 0.0
2017-Jun-16 22:30N 43°35' E 010°18'0 0.0
2017-Jun-16 22:00N 43°35' E 010°18'0 0.0
2017-Jun-16 21:30N 43°35' E 010°18'0 0.0
2017-Jun-16 21:00N 43°35' E 010°18'0 0.0
2017-Jun-16 20:30N 43°35' E 010°18'0 0.0
2017-Jun-16 20:00N 43°35' E 010°18'0 0.0
2017-Jun-16 19:30N 43°35' E 010°18'0 0.0
2017-Jun-16 19:00N 43°35' E 010°18'0 0.0
2017-Jun-16 18:30N 43°35' E 010°18'0 0.0
2017-Jun-16 18:00N 43°35' E 010°18'0 0.0
2017-Jun-16 17:30N 43°35' E 010°18'0 0.0
2017-Jun-16 17:00N 43°35' E 010°18'0 0.0
2017-Jun-16 16:30N 43°35' E 010°18'0 0.0
2017-Jun-16 16:00N 43°35' E 010°18'0 0.0
2017-Jun-16 15:30N 43°35' E 010°18'0 0.0
2017-Jun-16 15:00N 43°35' E 010°18'0 0.0
2017-Jun-16 14:00N 43°35' E 010°18'2 4.1
2017-Jun-16 13:30N 43°33' E 010°17'3 5.4
2017-Jun-16 13:00N 43°31' E 010°15'2 2.8
2017-Jun-16 12:28N 43°29' E 010°17'0 0.0
2017-Jun-16 11:58N 43°29' E 010°17'0 0.0
2017-Jun-16 11:28N 43°29' E 010°17'0 0.1
2017-Jun-16 10:58N 43°29' E 010°17'0 0.0
2017-Jun-16 10:28N 43°29' E 010°17'0 0.0
2017-Jun-16 09:58N 43°29' E 010°17'0 0.1
2017-Jun-16 09:28N 43°29' E 010°17'0 0.1
2017-Jun-16 08:58N 43°29' E 010°17'0 0.0
2017-Jun-16 08:28N 43°29' E 010°17'0 0.0
2017-Jun-16 07:58N 43°29' E 010°17'0 0.0
2017-Jun-16 07:25N 43°29' E 010°17'0 0.0
2017-Jun-16 06:55N 43°29' E 010°17'0 0.0
2017-Jun-16 06:28N 43°29' E 010°17'0 0.0
2017-Jun-16 05:58N 43°29' E 010°17'0 0.0
2017-Jun-16 05:28N 43°29' E 010°17'0 0.0
2017-Jun-16 04:58N 43°29' E 010°17'0 0.0
2017-Jun-16 04:28N 43°29' E 010°17'0 0.0
2017-Jun-16 03:58N 43°29' E 010°17'0 0.0
2017-Jun-16 03:28N 43°29' E 010°17'0 0.0
2017-Jun-16 02:59N 43°29' E 010°17'0 0.0
2017-Jun-16 02:28N 43°29' E 010°17'0 0.0
2017-Jun-16 01:58N 43°29' E 010°17'0 0.0
2017-Jun-16 01:28N 43°29' E 010°17'0 0.0
2017-Jun-16 00:58N 43°29' E 010°17'0 0.0
2017-Jun-16 00:28N 43°29' E 010°17'0 0.0
2017-Jun-15 23:58N 43°29' E 010°17'0 0.0
2017-Jun-15 22:46N 43°29' E 010°17'0 0.0
2017-Jun-15 22:28N 43°29' E 010°17'0 0.0
2017-Jun-15 21:58N 43°29' E 010°17'0 0.0
2017-Jun-15 21:28N 43°29' E 010°17'0 0.0
2017-Jun-15 20:58N 43°29' E 010°17'0 0.0
2017-Jun-15 20:28N 43°29' E 010°17'0 0.0
2017-Jun-15 19:58N 43°29' E 010°17'0 0.0
2017-Jun-15 19:28N 43°29' E 010°17'0 0.0
2017-Jun-15 18:58N 43°29' E 010°17'0 0.0
2017-Jun-15 18:28N 43°29' E 010°17'0 0.0
2017-Jun-15 17:58N 43°29' E 010°17'0 0.0
2017-Jun-15 17:28N 43°29' E 010°17'0 0.0
2017-Jun-15 16:58N 43°29' E 010°17'0 0.0
2017-Jun-15 16:28N 43°29' E 010°17'0 0.0
2017-Jun-15 15:55N 43°29' E 010°17'0 0.0
2017-Jun-15 15:28N 43°29' E 010°17'0 0.0
2017-Jun-15 14:58N 43°29' E 010°17'0 0.0
2017-Jun-15 13:55N 43°29' E 010°17'0 0.0
2017-Jun-15 13:28N 43°29' E 010°17'0 0.0
2017-Jun-15 12:58N 43°29' E 010°17'0 0.0
2017-Jun-15 12:28N 43°29' E 010°17'0 0.0
2017-Jun-15 11:58N 43°29' E 010°17'0 0.0
2017-Jun-15 11:28N 43°29' E 010°17'0 0.0
2017-Jun-15 10:58N 43°29' E 010°17'0 0.0
2017-Jun-15 10:28N 43°29' E 010°17'0 0.0
2017-Jun-15 09:58N 43°29' E 010°17'0 0.0
2017-Jun-15 09:28N 43°29' E 010°17'0 0.0
2017-Jun-15 08:58N 43°29' E 010°17'0 0.0
2017-Jun-15 08:28N 43°29' E 010°17'0 0.0
2017-Jun-15 07:55N 43°29' E 010°17'0 0.0
2017-Jun-15 07:28N 43°29' E 010°17'0 0.0
2017-Jun-15 06:55N 43°29' E 010°17'0 0.0
2017-Jun-15 06:28N 43°29' E 010°17'0 0.0
2017-Jun-15 05:58N 43°29' E 010°17'0 0.0
2017-Jun-15 05:28N 43°29' E 010°17'0 0.0
2017-Jun-15 04:55N 43°29' E 010°17'0 0.0
2017-Jun-15 04:28N 43°29' E 010°17'0 0.0
2017-Jun-15 03:58N 43°29' E 010°17'0 0.0
2017-Jun-15 03:28N 43°29' E 010°17'0 0.9
2017-Jun-15 03:00N 43°29' E 010°16'3 6.9
2017-Jun-15 02:30N 43°26' E 010°15'3 6.9
2017-Jun-15 02:00N 43°23' E 010°14'4 7.3
2017-Jun-15 01:30N 43°19' E 010°15'4 7.6
2017-Jun-15 01:00N 43°15' E 010°17'4 8.0
2017-Jun-15 00:30N 43°12' E 010°19'4 7.8
2017-Jun-15 00:00N 43°08' E 010°21'4 7.6
2017-Jun-14 23:30N 43°04' E 010°23'510.6
2017-Jun-14 23:01N 42°59' E 010°25'814.0
2017-Jun-14 22:27N 42°53' E 010°30'613.8
2017-Jun-14 22:00N 42°47' E 010°33'714.2
2017-Jun-14 21:30N 42°40' E 010°35'714.1
2017-Jun-14 21:00N 42°33' E 010°38'714.1
2017-Jun-14 20:30N 42°26' E 010°40'714.2
2017-Jun-14 20:00N 42°20' E 010°43'714.5
2017-Jun-14 19:31N 42°14' E 010°49'714.3
2017-Jun-14 19:00N 42°09' E 010°56'714.0
2017-Jun-14 18:30N 42°04' E 011°02'713.9
2017-Jun-14 18:00N 41°59' E 011°09'713.9
2017-Jun-14 17:30N 41°54' E 011°15'713.8
2017-Jun-14 17:01N 41°49' E 011°22'713.8
2017-Jun-14 16:31N 41°44' E 011°28'714.2
2017-Jun-14 16:01N 41°39' E 011°35'714.4
2017-Jun-14 15:30N 41°33' E 011°42'714.3
2017-Jun-14 14:59N 41°28' E 011°48'714.4
2017-Jun-14 14:30N 41°23' E 011°54'1514.4
2017-Jun-14 13:29N 41°12' E 012°08'714.3
2017-Jun-14 12:59N 41°07' E 012°15'714.3
2017-Jun-14 12:29N 41°02' E 012°21'714.2
2017-Jun-14 12:01N 40°57' E 012°27'714.2
2017-Jun-14 11:31N 40°52' E 012°34'814.1
2017-Jun-14 10:58N 40°46' E 012°40'814.0
2017-Jun-14 10:25N 40°41' E 012°48'614.2
2017-Jun-14 09:58N 40°36' E 012°53'714.4
2017-Jun-14 09:28N 40°31' E 012°60'1714.5
2017-Jun-14 08:18N 40°18' E 013°15'614.5
2017-Jun-14 07:53N 40°14' E 013°20'514.3
2017-Jun-14 07:31N 40°10' E 013°25'714.3
2017-Jun-14 07:00N 40°04' E 013°31'714.4
2017-Jun-14 06:31N 39°59' E 013°38'714.4
2017-Jun-14 06:00N 39°54' E 013°44'714.3
2017-Jun-14 05:31N 39°49' E 013°51'714.3
2017-Jun-14 05:01N 39°44' E 013°57'714.1
2017-Jun-14 04:30N 39°39' E 014°04'814.2
2017-Jun-14 03:58N 39°33' E 014°10'714.3
2017-Jun-14 03:30N 39°29' E 014°16'714.5
2017-Jun-14 03:00N 39°23' E 014°23'714.6
2017-Jun-14 02:30N 39°18' E 014°29'814.7
2017-Jun-14 01:59N 39°12' E 014°36'714.7
2017-Jun-14 01:30N 39°07' E 014°42'814.6
2017-Jun-14 00:59N 39°02' E 014°49'714.4
2017-Jun-14 00:30N 38°57' E 014°55'714.3
2017-Jun-14 00:00N 38°51' E 015°01'714.3
2017-Jun-13 23:31N 38°46' E 015°07'714.4
2017-Jun-13 23:00N 38°41' E 015°14'714.6
2017-Jun-13 22:30N 38°36' E 015°21'714.5
2017-Jun-13 22:00N 38°31' E 015°27'714.5
2017-Jun-13 21:30N 38°26' E 015°34'714.3
2017-Jun-13 21:00N 38°21' E 015°40'510.6
2017-Jun-13 20:30N 38°16' E 015°41'613.0
2017-Jun-13 20:01N 38°10' E 015°37'714.3
2017-Jun-13 19:30N 38°03' E 015°37'713.9
2017-Jun-13 19:01N 37°56' E 015°38'714.6
2017-Jun-13 18:31N 37°52' E 015°46'814.9
2017-Jun-13 17:59N 37°50' E 015°55'13114.3
2017-Jun-13 08:51N 37°14' E 018°34'714.9
2017-Jun-13 08:23N 37°12' E 018°42'  
Track history (hours):
 
Tides and Currents Weather Stations Pressure Air Temp Water Temp Dewpoint Dewpoint Depression Visibility Wind Speed Wind Dir Waves Ship Positions

Faust

Last reported at 2017-Jun-23 03:18 UTC. Time now 2017-Jun-23 03:30 UTC.
Position N 49°24' W 003°58'.

Length 227.8 m; beam 32.3 m; draft 9.5 m.

Type: Cargo ship. MMSI: 266260000.

Date/timePositionNaut miles runAvg speedWind from/ knotsBaromVisibWave heightAir tempDewpointWater temp
2017-Jun-23 03:18N 49°24' W 003°58'1117.4
2017-Jun-23 02:42N 49°19' W 004°13'417.2
2017-Jun-23 02:28N 49°17' W 004°18'817.0
2017-Jun-23 02:00N 49°13' W 004°28'917.0
2017-Jun-23 01:28N 49°08' W 004°39'816.8
2017-Jun-23 01:00N 49°04' W 004°50'816.7
2017-Jun-23 00:30N 49°00' W 005°01'816.3
2017-Jun-23 00:00N 48°56' W 005°12'816.0
2017-Jun-22 23:30N 48°52' W 005°22'714.8
2017-Jun-22 23:00N 48°48' W 005°32'713.1
2017-Jun-22 22:30N 48°43' W 005°38'612.4
2017-Jun-22 21:59N 48°37' W 005°42'611.7
2017-Jun-22 21:30N 48°32' W 005°46'712.8
2017-Jun-22 20:57N 48°26' W 005°51'614.2
2017-Jun-22 20:30N 48°20' W 005°56'714.1
2017-Jun-22 19:59N 48°14' W 006°01'814.1
2017-Jun-22 19:26N 48°07' W 006°07'614.2
2017-Jun-22 19:00N 48°02' W 006°11'714.4
2017-Jun-22 18:30N 47°55' W 006°16'1014.3
2017-Jun-22 17:48N 47°46' W 006°22'1214.2
2017-Jun-22 16:59N 47°36' W 006°30'3015.3
2017-Jun-22 15:00N 47°09' W 006°51'47415.4
2017-Jun-21 08:14N 39°34' W 009°51'315.3
2017-Jun-21 08:00N 39°30' W 009°51'815.5
2017-Jun-21 07:30N 39°23' W 009°51'816.0
2017-Jun-21 07:00N 39°15' W 009°51'815.6
2017-Jun-21 06:30N 39°07' W 009°51'815.8
2017-Jun-21 06:00N 38°59' W 009°51'815.5
2017-Jun-21 05:30N 38°51' W 009°51'815.7
2017-Jun-21 05:00N 38°43' W 009°51'815.2
2017-Jun-21 04:30N 38°36' W 009°49'815.1
2017-Jun-21 04:00N 38°28' W 009°47'815.2
2017-Jun-21 03:30N 38°21' W 009°44'815.3
2017-Jun-21 03:00N 38°14' W 009°42'715.1
2017-Jun-21 02:30N 38°06' W 009°40'815.2
2017-Jun-21 02:01N 37°59' W 009°38'815.0
2017-Jun-21 01:30N 37°51' W 009°36'714.7
2017-Jun-21 01:00N 37°44' W 009°34'815.2
2017-Jun-21 00:30N 37°37' W 009°32'815.7
2017-Jun-20 23:58N 37°29' W 009°29'815.5
2017-Jun-20 23:28N 37°21' W 009°27'715.6
2017-Jun-20 23:00N 37°14' W 009°25'815.6
2017-Jun-20 22:28N 37°06' W 009°23'815.6
2017-Jun-20 21:57N 36°58' W 009°21'715.0
2017-Jun-20 21:30N 36°52' W 009°17'815.4
2017-Jun-20 20:57N 36°46' W 009°09'714.9
2017-Jun-20 20:29N 36°43' W 009°02'715.1
2017-Jun-20 20:00N 36°40' W 008°53'815.2
2017-Jun-20 19:28N 36°38' W 008°43'715.5
2017-Jun-20 19:00N 36°36' W 008°35'815.5
2017-Jun-20 18:30N 36°33' W 008°26'815.6
2017-Jun-20 17:59N 36°31' W 008°16'815.6
2017-Jun-20 17:27N 36°28' W 008°06'1415.1
2017-Jun-20 16:33N 36°24' W 007°50'11015.9
2017-Jun-20 09:37N 35°58' W 005°37'216.0
2017-Jun-20 09:30N 35°58' W 005°35'815.4
2017-Jun-20 09:00N 36°00' W 005°26'714.9
2017-Jun-20 08:30N 36°04' W 005°18'815.8
2017-Jun-20 08:00N 36°09' W 005°10'16115.3
2017-Jun-19 21:29N 36°39' W 001°53'5016.3
2017-Jun-19 18:23N 37°12' W 001°05'615.8
2017-Jun-19 17:59N 37°16' W 000°60'815.9
2017-Jun-19 17:30N 37°21' W 000°52'816.1
2017-Jun-19 17:00N 37°27' W 000°44'815.9
2017-Jun-19 16:30N 37°32' W 000°37'815.4
2017-Jun-19 16:00N 37°38' W 000°30'815.4
2017-Jun-19 15:30N 37°44' W 000°25'815.7
2017-Jun-19 15:00N 37°51' W 000°20'815.9
2017-Jun-19 14:30N 37°57' W 000°14'1616.0
2017-Jun-19 13:29N 38°11' W 000°03'815.8
2017-Jun-19 13:00N 38°18' E 000°02'1215.3
2017-Jun-19 12:14N 38°27' E 000°11'515.2
2017-Jun-19 11:54N 38°32' E 000°14'3515.0
2017-Jun-19 09:34N 39°02' E 000°36'115.8
2017-Jun-19 09:30N 39°03' E 000°37'2415.7
2017-Jun-19 07:57N 39°24' E 000°52'1815.4
2017-Jun-19 06:48N 39°40' E 001°03'415.2
2017-Jun-19 06:30N 39°44' E 001°05'1015.1
2017-Jun-19 05:49N 39°53' E 001°12'515.0
2017-Jun-19 05:30N 39°57' E 001°15'715.0
2017-Jun-19 05:00N 40°04' E 001°20'815.2
2017-Jun-19 04:30N 40°10' E 001°25'815.5
2017-Jun-19 04:00N 40°17' E 001°29'815.8
2017-Jun-19 03:30N 40°24' E 001°34'815.9
2017-Jun-19 03:00N 40°31' E 001°39'815.8
2017-Jun-19 02:30N 40°38' E 001°44'815.9
2017-Jun-19 02:00N 40°45' E 001°49'816.0
2017-Jun-19 01:30N 40°52' E 001°55'815.9
2017-Jun-19 01:00N 40°59' E 001°59'816.0
2017-Jun-19 00:30N 41°06' E 002°04'816.0
2017-Jun-19 00:00N 41°13' E 002°09'612.6
2017-Jun-18 23:30N 41°20' E 002°10'1 0.6
2017-Jun-18 21:40N 41°20' E 002°09'0 0.0
2017-Jun-18 21:28N 41°20' E 002°09'0 0.0
2017-Jun-18 20:28N 41°20' E 002°09'0 0.0
2017-Jun-18 19:58N 41°20' E 002°09'0 0.0
2017-Jun-18 19:28N 41°20' E 002°09'0 0.0
2017-Jun-18 18:58N 41°20' E 002°09'0 0.0
2017-Jun-18 17:40N 41°20' E 002°09'0 0.0
2017-Jun-18 17:10N 41°20' E 002°09'0 0.0
2017-Jun-18 15:22N 41°20' E 002°09'0 0.1
2017-Jun-18 14:34N 41°20' E 002°09'2 4.0
2017-Jun-18 14:00N 41°18' E 002°11'4 8.7
2017-Jun-18 13:30N 41°17' E 002°16'914.4
2017-Jun-18 12:51N 41°20' E 002°28'514.2
2017-Jun-18 12:30N 41°22' E 002°34'1014.1
2017-Jun-18 11:49N 41°25' E 002°46'414.0
2017-Jun-18 11:30N 41°27' E 002°51'714.2
2017-Jun-18 11:00N 41°29' E 003°01'814.6
2017-Jun-18 10:27N 41°31' E 003°11'715.2
2017-Jun-18 10:00N 41°34' E 003°19'815.2
2017-Jun-18 09:30N 41°36' E 003°29'815.1
2017-Jun-18 09:00N 41°39' E 003°38'815.2
2017-Jun-18 08:30N 41°41' E 003°48'1115.1
2017-Jun-18 07:47N 41°45' E 004°02'1615.0
2017-Jun-18 06:44N 41°50' E 004°22'3015.2
2017-Jun-18 04:45N 42°01' E 004°60'3115.3
2017-Jun-18 02:45N 42°11' E 005°39'7915.0
2017-Jun-17 21:26N 42°37' E 007°20'714.9
2017-Jun-17 21:00N 42°40' E 007°28'715.1
2017-Jun-17 20:30N 42°42' E 007°38'815.1
2017-Jun-17 20:00N 42°45' E 007°47'815.3
2017-Jun-17 19:30N 42°48' E 007°57'815.6
2017-Jun-17 19:00N 42°50' E 008°07'815.4
2017-Jun-17 18:30N 42°53' E 008°17'815.2
2017-Jun-17 18:00N 42°55' E 008°27'815.1
2017-Jun-17 17:30N 42°58' E 008°37'815.2
2017-Jun-17 17:00N 43°01' E 008°46'714.9
2017-Jun-17 16:30N 43°03' E 008°56'715.0
2017-Jun-17 16:00N 43°05' E 009°06'815.3
2017-Jun-17 15:30N 43°08' E 009°15'815.5
2017-Jun-17 15:00N 43°11' E 009°25'815.5
2017-Jun-17 14:30N 43°15' E 009°35'1413.8
2017-Jun-17 13:30N 43°18' E 009°53'815.1
2017-Jun-17 13:00N 43°22' E 010°02'815.6
2017-Jun-17 12:30N 43°28' E 010°09'713.4
2017-Jun-17 12:00N 43°32' E 010°16'3 5.5
2017-Jun-17 11:30N 43°34' E 010°18'0 0.5
2017-Jun-17 10:58N 43°35' E 010°18'0 0.0
2017-Jun-17 10:28N 43°35' E 010°18'0 0.0
2017-Jun-17 10:00N 43°35' E 010°18'0 0.0
2017-Jun-17 09:30N 43°35' E 010°18'0 0.0
2017-Jun-17 09:00N 43°35' E 010°18'0 0.0
2017-Jun-17 08:30N 43°35' E 010°18'0 0.0
2017-Jun-17 08:00N 43°35' E 010°18'0 0.0
2017-Jun-17 07:30N 43°35' E 010°18'0 0.0
2017-Jun-17 07:00N 43°35' E 010°18'0 0.0
2017-Jun-17 06:30N 43°35' E 010°18'0 0.0
2017-Jun-17 06:00N 43°35' E 010°18'0 0.0
2017-Jun-17 05:30N 43°35' E 010°18'0 0.0
2017-Jun-17 05:00N 43°35' E 010°18'0 0.0
2017-Jun-17 04:30N 43°35' E 010°18'0 0.0
2017-Jun-17 04:00N 43°35' E 010°18'0 0.0
2017-Jun-17 03:28N 43°35' E 010°18'0 0.0
2017-Jun-17 03:00N 43°35' E 010°18'0 0.0
2017-Jun-17 02:30N 43°35' E 010°18'0 0.0
2017-Jun-17 02:00N 43°35' E 010°18'0 0.0
2017-Jun-17 01:30N 43°35' E 010°18'0 0.0
2017-Jun-17 01:00N 43°35' E 010°18'0 0.0
2017-Jun-17 00:30N 43°35' E 010°18'0 0.0
2017-Jun-17 00:00N 43°35' E 010°18'0 0.0
2017-Jun-16 23:30N 43°35' E 010°18'0 0.0
2017-Jun-16 23:00N 43°35' E 010°18'0 0.0
2017-Jun-16 22:30N 43°35' E 010°18'0 0.0
2017-Jun-16 22:00N 43°35' E 010°18'0 0.0
2017-Jun-16 21:30N 43°35' E 010°18'0 0.0
2017-Jun-16 21:00N 43°35' E 010°18'0 0.0
2017-Jun-16 20:30N 43°35' E 010°18'0 0.0
2017-Jun-16 20:00N 43°35' E 010°18'0 0.0
2017-Jun-16 19:30N 43°35' E 010°18'0 0.0
2017-Jun-16 19:00N 43°35' E 010°18'0 0.0
2017-Jun-16 18:30N 43°35' E 010°18'0 0.0
2017-Jun-16 18:00N 43°35' E 010°18'0 0.0
2017-Jun-16 17:30N 43°35' E 010°18'0 0.0
2017-Jun-16 17:00N 43°35' E 010°18'0 0.0
2017-Jun-16 16:30N 43°35' E 010°18'0 0.0
2017-Jun-16 16:00N 43°35' E 010°18'0 0.0
2017-Jun-16 15:30N 43°35' E 010°18'0 0.0
2017-Jun-16 15:00N 43°35' E 010°18'0 0.0
2017-Jun-16 14:00N 43°35' E 010°18'2 4.1
2017-Jun-16 13:30N 43°33' E 010°17'3 5.4
2017-Jun-16 13:00N 43°31' E 010°15'2 2.8
2017-Jun-16 12:28N 43°29' E 010°17'0 0.0
2017-Jun-16 11:58N 43°29' E 010°17'0 0.0
2017-Jun-16 11:28N 43°29' E 010°17'0 0.1
2017-Jun-16 10:58N 43°29' E 010°17'0 0.0
2017-Jun-16 10:28N 43°29' E 010°17'0 0.0
2017-Jun-16 09:58N 43°29' E 010°17'0 0.1
2017-Jun-16 09:28N 43°29' E 010°17'0 0.1
2017-Jun-16 08:58N 43°29' E 010°17'0 0.0
2017-Jun-16 08:28N 43°29' E 010°17'0 0.0
2017-Jun-16 07:58N 43°29' E 010°17'0 0.0
2017-Jun-16 07:25N 43°29' E 010°17'0 0.0
2017-Jun-16 06:55N 43°29' E 010°17'0 0.0
2017-Jun-16 06:28N 43°29' E 010°17'0 0.0
2017-Jun-16 05:58N 43°29' E 010°17'0 0.0
2017-Jun-16 05:28N 43°29' E 010°17'0 0.0
2017-Jun-16 04:58N 43°29' E 010°17'0 0.0
2017-Jun-16 04:28N 43°29' E 010°17'0 0.0
2017-Jun-16 03:58N 43°29' E 010°17'0 0.0
2017-Jun-16 03:28N 43°29' E 010°17'0 0.0
2017-Jun-16 02:59N 43°29' E 010°17'0 0.0
2017-Jun-16 02:28N 43°29' E 010°17'0 0.0
2017-Jun-16 01:58N 43°29' E 010°17'0 0.0
2017-Jun-16 01:28N 43°29' E 010°17'0 0.0
2017-Jun-16 00:58N 43°29' E 010°17'0 0.0
2017-Jun-16 00:28N 43°29' E 010°17'0 0.0
2017-Jun-15 23:58N 43°29' E 010°17'0 0.0
2017-Jun-15 22:46N 43°29' E 010°17'0 0.0
2017-Jun-15 22:28N 43°29' E 010°17'0 0.0
2017-Jun-15 21:58N 43°29' E 010°17'0 0.0
2017-Jun-15 21:28N 43°29' E 010°17'0 0.0
2017-Jun-15 20:58N 43°29' E 010°17'0 0.0
2017-Jun-15 20:28N 43°29' E 010°17'0 0.0
2017-Jun-15 19:58N 43°29' E 010°17'0 0.0
2017-Jun-15 19:28N 43°29' E 010°17'0 0.0
2017-Jun-15 18:58N 43°29' E 010°17'0 0.0
2017-Jun-15 18:28N 43°29' E 010°17'0 0.0
2017-Jun-15 17:58N 43°29' E 010°17'0 0.0
2017-Jun-15 17:28N 43°29' E 010°17'0 0.0
2017-Jun-15 16:58N 43°29' E 010°17'0 0.0
2017-Jun-15 16:28N 43°29' E 010°17'0 0.0
2017-Jun-15 15:55N 43°29' E 010°17'0 0.0
2017-Jun-15 15:28N 43°29' E 010°17'0 0.0
2017-Jun-15 14:58N 43°29' E 010°17'0 0.0
2017-Jun-15 13:55N 43°29' E 010°17'0 0.0
2017-Jun-15 13:28N 43°29' E 010°17'0 0.0
2017-Jun-15 12:58N 43°29' E 010°17'0 0.0
2017-Jun-15 12:28N 43°29' E 010°17'0 0.0
2017-Jun-15 11:58N 43°29' E 010°17'0 0.0
2017-Jun-15 11:28N 43°29' E 010°17'0 0.0
2017-Jun-15 10:58N 43°29' E 010°17'0 0.0
2017-Jun-15 10:28N 43°29' E 010°17'0 0.0
2017-Jun-15 09:58N 43°29' E 010°17'0 0.0
2017-Jun-15 09:28N 43°29' E 010°17'0 0.0
2017-Jun-15 08:58N 43°29' E 010°17'0 0.0
2017-Jun-15 08:28N 43°29' E 010°17'0 0.0
2017-Jun-15 07:55N 43°29' E 010°17'0 0.0
2017-Jun-15 07:28N 43°29' E 010°17'0 0.0
2017-Jun-15 06:55N 43°29' E 010°17'0 0.0
2017-Jun-15 06:28N 43°29' E 010°17'0 0.0
2017-Jun-15 05:58N 43°29' E 010°17'0 0.0
2017-Jun-15 05:28N 43°29' E 010°17'0 0.0
2017-Jun-15 04:55N 43°29' E 010°17'0 0.0
2017-Jun-15 04:28N 43°29' E 010°17'0 0.0
2017-Jun-15 03:58N 43°29' E 010°17'0 0.0
2017-Jun-15 03:28N 43°29' E 010°17'0 0.9
2017-Jun-15 03:00N 43°29' E 010°16'3 6.9
2017-Jun-15 02:30N 43°26' E 010°15'3 6.9
2017-Jun-15 02:00N 43°23' E 010°14'4 7.3
2017-Jun-15 01:30N 43°19' E 010°15'4 7.6
2017-Jun-15 01:00N 43°15' E 010°17'4 8.0
2017-Jun-15 00:30N 43°12' E 010°19'4 7.8
2017-Jun-15 00:00N 43°08' E 010°21'4 7.6
2017-Jun-14 23:30N 43°04' E 010°23'510.6
2017-Jun-14 23:01N 42°59' E 010°25'814.0
2017-Jun-14 22:27N 42°53' E 010°30'613.8
2017-Jun-14 22:00N 42°47' E 010°33'714.2
2017-Jun-14 21:30N 42°40' E 010°35'714.1
2017-Jun-14 21:00N 42°33' E 010°38'714.1
2017-Jun-14 20:30N 42°26' E 010°40'714.2
2017-Jun-14 20:00N 42°20' E 010°43'714.5
2017-Jun-14 19:31N 42°14' E 010°49'714.3
2017-Jun-14 19:00N 42°09' E 010°56'714.0
2017-Jun-14 18:30N 42°04' E 011°02'713.9
2017-Jun-14 18:00N 41°59' E 011°09'713.9
2017-Jun-14 17:30N 41°54' E 011°15'713.8
2017-Jun-14 17:01N 41°49' E 011°22'713.8
2017-Jun-14 16:31N 41°44' E 011°28'714.2
2017-Jun-14 16:01N 41°39' E 011°35'714.4
2017-Jun-14 15:30N 41°33' E 011°42'714.3
2017-Jun-14 14:59N 41°28' E 011°48'714.4
2017-Jun-14 14:30N 41°23' E 011°54'1514.4
2017-Jun-14 13:29N 41°12' E 012°08'714.3
2017-Jun-14 12:59N 41°07' E 012°15'714.3
2017-Jun-14 12:29N 41°02' E 012°21'714.2
2017-Jun-14 12:01N 40°57' E 012°27'714.2
2017-Jun-14 11:31N 40°52' E 012°34'814.1
2017-Jun-14 10:58N 40°46' E 012°40'814.0
2017-Jun-14 10:25N 40°41' E 012°48'614.2
2017-Jun-14 09:58N 40°36' E 012°53'714.4
2017-Jun-14 09:28N 40°31' E 012°60'1714.5
2017-Jun-14 08:18N 40°18' E 013°15'614.5
2017-Jun-14 07:53N 40°14' E 013°20'514.3
2017-Jun-14 07:31N 40°10' E 013°25'714.3
2017-Jun-14 07:00N 40°04' E 013°31'714.4
2017-Jun-14 06:31N 39°59' E 013°38'714.4
2017-Jun-14 06:00N 39°54' E 013°44'714.3
2017-Jun-14 05:31N 39°49' E 013°51'714.3
2017-Jun-14 05:01N 39°44' E 013°57'714.1
2017-Jun-14 04:30N 39°39' E 014°04'814.2
2017-Jun-14 03:58N 39°33' E 014°10'714.3
2017-Jun-14 03:30N 39°29' E 014°16'714.5
2017-Jun-14 03:00N 39°23' E 014°23'714.6
2017-Jun-14 02:30N 39°18' E 014°29'814.7
2017-Jun-14 01:59N 39°12' E 014°36'714.7
2017-Jun-14 01:30N 39°07' E 014°42'814.6
2017-Jun-14 00:59N 39°02' E 014°49'714.4
2017-Jun-14 00:30N 38°57' E 014°55'714.3
2017-Jun-14 00:00N 38°51' E 015°01'714.3
2017-Jun-13 23:31N 38°46' E 015°07'714.4
2017-Jun-13 23:00N 38°41' E 015°14'714.6
2017-Jun-13 22:30N 38°36' E 015°21'714.5
2017-Jun-13 22:00N 38°31' E 015°27'714.5
2017-Jun-13 21:30N 38°26' E 015°34'714.3
2017-Jun-13 21:00N 38°21' E 015°40'510.6
2017-Jun-13 20:30N 38°16' E 015°41'613.0
2017-Jun-13 20:01N 38°10' E 015°37'714.3
2017-Jun-13 19:30N 38°03' E 015°37'713.9
2017-Jun-13 19:01N 37°56' E 015°38'714.6
2017-Jun-13 18:31N 37°52' E 015°46'814.9
2017-Jun-13 17:59N 37°50' E 015°55'13114.3
2017-Jun-13 08:51N 37°14' E 018°34'714.9
2017-Jun-13 08:23N 37°12' E 018°42'  

Dump ship's entire track history